Latest Weather Observations for Ngayawili (Elcho Island)

IDD60801

Issued at 11:05 pm CST Friday 1 August 2014 (issued every 30 minutes, with the page automatically refreshed every 10 minutes)

About weather observations | Map of weather stations | Latest weather observations for NT | Other Formats
Station Details ID: 014517 Name: NGAYAWILI Lat: -12.00 Lon: 135.57 Height: 8.1 m
Data from the previous 72 hours. | See also: Recent months at Ngayawili (Elcho Island)
Date/Time
CST
Temp
°C
App
Temp
°C
Dew
Point
Rel
Hum
%
Delta-T
°C
Wind Press
QNH
hPa
Press
MSL
hPa
Rain
since 9 am
mm
Dir
 
Spd
km/h
Gust
km/h
Spd
kts
Gust
kts
01/11:00pm 24.0 26.5 22.4 91 1.1 ESE 13 22 7 12 1014.6 - 0.0
01/10:30pm 24.3 26.3 22.2 88 1.4 ESE 15 26 8 14 1014.5 - 0.0
01/10:00pm 24.4 26.6 21.9 86 1.7 ESE 13 20 7 11 1014.6 - 0.0
01/09:30pm 24.9 26.6 21.6 82 2.2 ESE 15 24 8 13 1014.5 - 0.0
01/09:00pm 25.3 27.1 21.8 81 2.3 ESE 15 30 8 16 1014.3 1014.2 0.0
01/08:30pm 25.7 26.6 21.6 78 2.7 E 19 37 10 20 1014.1 - 0.0
01/08:00pm 25.2 27.9 22.1 83 2.1 E 11 15 6 8 1013.9 - 0.0
01/07:30pm 24.6 27.6 21.9 85 1.8 ENE 9 13 5 7 1013.5 - 0.0
01/07:00pm 25.1 27.7 21.2 79 2.6 ENE 9 11 5 6 1013.1 - 0.0
01/06:30pm 25.7 28.0 20.7 74 3.3 ENE 9 13 5 7 1012.8 - 0.0
01/06:00pm 26.9 29.1 20.3 67 4.3 ENE 9 17 5 9 1012.4 1012.3 0.0
01/05:30pm 27.9 29.5 20.7 65 4.8 ENE 13 19 7 10 1012.2 - 0.0
01/05:00pm 28.9 30.6 20.9 62 5.3 ENE 13 19 7 10 1012.0 - 0.0
01/04:30pm 29.4 31.4 20.8 60 5.7 E 11 19 6 10 1011.8 - 0.0
01/04:00pm 29.4 30.9 20.5 58 5.9 E 13 20 7 11 1011.8 - 0.0
01/03:30pm 30.0 31.8 21.1 59 5.9 E 13 26 7 14 1012.0 - 0.0
01/03:00pm 29.9 31.4 20.5 57 6.2 E 13 20 7 11 1012.3 1012.2 0.0
01/02:30pm 30.0 31.0 21.1 59 5.9 E 17 26 9 14 1012.7 - 0.0
01/02:00pm 29.7 30.7 21.1 60 5.7 ESE 17 33 9 18 1013.3 - 0.0
01/01:30pm 29.1 30.0 20.8 61 5.5 ESE 17 22 9 12 1013.8 - 0.0
01/01:00pm 29.2 29.6 20.9 61 5.5 NE 20 33 11 18 1014.1 - 0.0
01/12:30pm 29.0 29.3 20.7 61 5.5 NE 20 30 11 16 1014.5 - 0.0
01/12:00pm 29.4 31.4 21.6 63 5.2 E 13 24 7 13 1014.7 1014.6 0.0
01/11:30am 29.1 30.9 21.8 64 4.9 ENE 15 20 8 11 1015.3 - 0.0
01/11:00am 28.2 29.6 21.0 65 4.8 E 15 22 8 12 1015.6 - 0.0
01/10:30am 28.0 30.4 22.2 70 3.9 E 13 22 7 12 1015.9 - 0.0
01/10:00am 27.5 29.5 22.2 73 3.6 E 15 24 8 13 1015.9 - 0.0
01/09:30am 27.0 30.5 23.5 81 2.4 NE 11 17 6 9 1016.1 - 0.0
01/09:00am 25.6 29.4 24.0 91 1.1 NE 11 20 6 11 1016.0 1015.9 0.0
01/08:30am 24.0 27.8 24.0 100 0.0 NE 11 17 6 9 1015.8 - 0.0
01/08:00am 22.9 26.8 22.9 100 0.0 E 7 11 4 6 1015.4 - 0.0
01/07:30am 21.6 24.8 21.6 100 0.0 ESE 7 9 4 5 1015.1 - 0.0
01/07:00am 19.8 22.1 19.8 100 0.0 ESE 7 7 4 4 1014.9 - 0.0
01/06:30am 20.8 23.8 20.8 100 0.0 ESE 6 7 3 4 1014.5 - 0.0
01/06:00am 20.3 23.0 20.3 100 0.0 ESE 6 7 3 4 1014.3 1014.2 0.0
01/05:30am 20.5 23.1 20.5 100 0.0 ESE 7 9 4 5 1014.2 - 0.0
01/05:00am 20.2 22.7 20.2 100 0.0 ESE 7 7 4 4 1014.0 - 0.0
01/04:30am 21.2 24.2 21.2 100 0.0 ESE 7 9 4 5 1013.9 - 0.0
01/04:00am 21.3 24.3 21.3 100 0.0 ESE 7 9 4 5 1013.9 - 0.0
01/03:30am 21.6 24.8 21.6 100 0.0 ESE 7 9 4 5 1014.0 - 0.0
01/03:00am 22.1 25.6 22.1 100 0.0 ESE 7 9 4 5 1014.1 1014.0 0.0
01/02:30am 22.5 25.7 22.3 99 0.1 E 9 13 5 7 1014.0 - 0.0
01/02:00am 22.6 25.8 22.4 99 0.1 E 9 13 5 7 1014.3 - 0.0
01/01:30am 22.7 26.4 22.5 99 0.1 E 7 13 4 7 1014.4 - 0.0
01/01:00am 22.7 26.4 22.5 99 0.1 E 7 11 4 6 1014.5 - 0.0
01/12:30am 22.9 26.1 22.4 97 0.3 ESE 9 11 5 6 1014.6 - 0.0
01/12:00am 23.3 26.5 22.3 94 0.7 E 9 17 5 9 1014.7 1014.6 0.0
 
Date/Time
CST
Temp
°C
App
Temp
°C
Dew
Point
Rel
Hum
%
Delta-T
°C
Wind Press
QNH
hPa
Press
MSL
hPa
Rain
since 9 am
mm
Dir
 
Spd
km/h
Gust
km/h
Spd
kts
Gust
kts
31/11:30pm 23.4 25.9 21.8 91 1.1 E 11 15 6 8 1014.7 - 0.0
31/11:00pm 23.5 25.7 21.8 90 1.1 E 13 20 7 11 1014.8 - 0.0
31/10:30pm 23.5 26.5 21.9 91 1.1 ESE 9 15 5 8 1015.1 - 0.0
31/10:00pm 23.8 26.5 22.1 90 1.1 ESE 11 17 6 9 1015.0 - 0.0
31/09:30pm 24.0 26.6 21.9 88 1.4 E 11 17 6 9 1014.8 - 0.0
31/09:00pm 24.0 26.6 21.9 88 1.4 E 11 17 6 9 1014.6 1014.5 0.0
31/08:30pm 23.9 26.9 22.0 89 1.3 E 9 15 5 8 1014.4 - 0.0
31/08:00pm 24.1 27.2 22.2 89 1.3 E 9 15 5 8 1014.1 - 0.0
31/07:30pm 24.5 27.2 22.2 87 1.5 ENE 11 17 6 9 1013.7 - 0.0
31/07:00pm 24.9 27.4 22.4 86 1.7 ENE 13 20 7 11 1013.2 - 0.0
31/06:30pm 25.4 27.7 22.1 82 2.2 ENE 13 20 7 11 1012.8 - 0.0
31/06:00pm 26.3 28.1 21.9 77 2.9 NE 15 24 8 13 1012.5 1012.4 0.0
31/05:30pm 27.9 29.8 22.1 70 3.9 NE 15 24 8 13 1012.2 - 0.0
31/05:00pm 28.6 31.0 22.3 68 4.3 ENE 13 20 7 11 1012.2 - 0.0
31/04:30pm 29.0 31.5 21.7 64 4.9 ENE 11 20 6 11 1012.2 - 0.0
31/04:00pm 29.0 31.1 21.7 64 4.9 ENE 13 20 7 11 1012.3 - 0.0
31/03:30pm 29.0 30.6 21.5 64 5.0 E 15 24 8 13 1012.2 - 0.0
31/03:00pm 29.0 30.6 21.5 64 5.0 E 15 20 8 11 1012.7 1012.6 0.0
31/02:30pm 29.1 30.8 21.6 64 5.0 ENE 15 22 8 12 1013.0 - 0.0
31/02:00pm 29.0 31.0 21.5 64 5.0 E 13 24 7 13 1013.3 - 0.0
31/01:30pm 28.7 30.4 21.7 66 4.7 SE 15 22 8 12 1013.7 - 0.0
31/01:00pm 28.8 30.6 21.8 66 4.7 E 15 20 8 11 1014.3 - 0.0
31/12:30pm 29.5 32.3 23.0 68 4.4 E 13 22 7 12 1014.5 - 0.0
31/12:00pm 28.5 30.9 22.3 69 4.2 E 13 22 7 12 1014.9 1014.8 0.0
31/11:30am 28.5 31.1 22.7 71 3.9 ENE 13 20 7 11 1015.1 - 0.0
31/11:00am 28.0 30.6 22.7 73 3.6 ENE 13 24 7 13 1015.6 - 0.0
31/10:30am 27.6 29.7 22.5 74 3.4 NE 15 24 8 13 1015.7 - 0.0
31/10:00am 26.6 29.0 22.9 80 2.5 E 15 26 8 14 1016.0 - 0.0
31/09:30am 26.0 29.2 23.7 87 1.6 E 13 20 7 11 1016.0 - 0.0
31/09:00am 24.2 28.1 24.2 100 0.0 ESE 11 19 6 10 1015.9 1015.8 0.0
31/08:30am 22.7 25.7 22.7 100 0.0 ESE 11 15 6 8 1015.8 - 0.0
31/08:00am 21.8 25.1 21.8 100 0.0 E 7 11 4 6 1015.7 - 0.0
31/07:30am 20.6 22.9 20.6 100 0.0 NE 9 11 5 6 1015.5 - 0.0
31/07:00am 19.6 21.8 19.6 100 0.0 NE 7 11 4 6 1015.4 - 0.0
31/06:30am 19.4 21.5 19.4 100 0.0 NE 7 9 4 5 1015.2 - 0.0
31/06:00am 18.5 19.8 18.5 100 0.0 ENE 9 9 5 5 1014.9 1014.8 0.0
31/05:30am 18.7 20.7 18.7 100 0.0 NE 6 7 3 4 1014.7 - 0.0
31/05:00am 18.9 21.0 18.9 100 0.0 NE 6 7 3 4 1014.6 - 0.0
31/04:30am 18.8 20.8 18.8 100 0.0 NE 6 7 3 4 1014.5 - 0.0
31/04:00am 19.1 22.4 19.1 100 0.0 CALM 0 6 0 3 1014.6 - 0.0
31/03:30am 19.4 22.8 19.4 100 0.0 CALM 0 0 0 0 1014.7 - 0.0
31/03:00am 19.5 23.0 19.5 100 0.0 CALM 0 0 0 0 1014.8 1014.7 0.0
31/02:30am 19.8 22.3 19.8 100 0.0 NE 6 6 3 3 1014.7 - 0.0
31/02:00am 20.1 23.1 20.1 100 0.0 NE 4 6 2 3 1014.8 - 0.0
31/01:30am 20.5 23.3 20.5 100 0.0 NE 6 7 3 4 1014.9 - 0.0
31/01:00am 21.0 24.1 21.0 100 0.0 NE 6 7 3 4 1015.0 - 0.0
31/12:30am 21.4 24.7 21.4 100 0.0 NE 6 7 3 4 1015.2 - 0.0
31/12:00am 22.0 25.4 22.0 100 0.0 ENE 7 9 4 5 1015.3 1015.2 0.0
 
Date/Time
CST
Temp
°C
App
Temp
°C
Dew
Point
Rel
Hum
%
Delta-T
°C
Wind Press
QNH
hPa
Press
MSL
hPa
Rain
since 9 am
mm
Dir
 
Spd
km/h
Gust
km/h
Spd
kts
Gust
kts
30/11:30pm 21.8 24.9 21.5 98 0.2 NE 7 9 4 5 1015.4 - 0.0
30/11:00pm 22.2 25.4 21.7 97 0.3 NE 7 11 4 6 1015.8 - 0.0
30/10:30pm 22.4 25.6 21.6 95 0.5 NE 7 11 4 6 1015.8 - 0.0
30/10:00pm 22.5 25.7 21.7 95 0.5 NE 7 9 4 5 1015.8 - 0.0
30/09:30pm 22.4 25.6 21.7 96 0.5 NE 7 9 4 5 1015.7 - 0.0
30/09:00pm 22.6 25.9 21.8 95 0.5 NE 7 7 4 4 1015.6 1015.5 0.0
30/08:30pm 23.2 26.5 21.8 92 0.9 NE 7 7 4 4 1015.3 - 0.0
30/08:00pm 23.7 27.1 22.0 90 1.1 NE 7 11 4 6 1014.9 - 0.0
30/07:30pm 24.1 27.0 21.8 87 1.5 ENE 9 15 5 8 1014.4 - 0.0
30/07:00pm 24.5 27.3 21.6 84 1.9 ENE 9 15 5 8 1014.0 - 0.0
30/06:30pm 25.1 27.0 21.4 80 2.4 ENE 13 20 7 11 1013.7 - 0.0
30/06:00pm 26.0 28.1 21.7 77 2.9 ENE 13 24 7 13 1013.5 1013.4 0.0
30/05:30pm 26.8 28.4 21.5 72 3.5 ENE 15 20 8 11 1013.3 - 0.0
30/05:00pm 28.0 30.3 22.0 70 4.0 ENE 13 20 7 11 1013.1 - 0.0
30/04:30pm 28.1 29.9 21.9 69 4.2 ENE 15 22 8 12 1012.9 - 0.0
30/04:00pm 28.6 30.8 21.9 67 4.5 ENE 13 24 7 13 1012.8 - 0.0
30/03:30pm 29.1 30.8 22.3 66 4.6 E 17 26 9 14 1012.9 - 0.0
30/03:00pm 28.9 31.0 22.4 68 4.4 ENE 15 26 8 14 1012.8 1012.7 0.0
30/02:30pm 29.1 30.2 21.3 62 5.2 ESE 17 30 9 16 1013.1 - 0.0
30/02:00pm 29.9 30.5 21.0 59 5.9 ESE 19 26 10 14 1013.4 - 0.0
30/01:30pm 29.5 30.4 20.9 60 5.7 E 17 26 9 14 1013.8 - 0.0
30/01:00pm 29.5 31.0 22.0 64 5.1 ESE 17 32 9 17 1014.1 - 0.0
30/12:30pm 28.4 28.6 21.4 66 4.7 SE 22 32 12 17 1014.5 - 0.0
30/12:00pm 28.4 29.5 22.4 70 4.1 ESE 20 37 11 20 1014.8 1014.7 0.0
30/11:30am 27.7 28.7 22.2 72 3.7 ESE 20 35 11 19 1015.2 - 0.0
30/11:00am 27.5 28.7 22.2 73 3.6 ESE 19 28 10 15 1015.6 - 0.0
30/10:30am 27.2 28.4 22.2 74 3.4 E 19 32 10 17 1016.1 - 0.0
30/10:00am 26.4 27.5 22.3 78 2.8 E 20 28 11 15 1016.4 - 0.0
30/09:30am 25.7 29.1 23.4 87 1.6 SE 11 17 6 9 1016.5 - 0.0
30/09:00am 24.2 27.2 23.3 95 0.6 SE 13 20 7 11 1016.4 1016.3 0.0
30/08:30am 22.9 25.6 22.9 100 0.0 SE 13 22 7 12 1016.2 - 0.0
30/08:00am 21.8 24.7 21.8 100 0.0 SE 9 17 5 9 1015.9 - 0.0
30/07:30am 21.1 24.0 21.1 100 0.0 SE 7 11 4 6 1015.8 - 0.0
30/07:00am 20.9 23.7 20.9 100 0.0 SE 7 11 4 6 1015.6 - 0.0
30/06:30am 21.0 23.5 21.0 100 0.0 SE 9 11 5 6 1015.3 - 0.0
30/06:00am 21.0 23.5 21.0 100 0.0 SE 9 11 5 6 1014.9 1014.8 0.0
30/05:30am 20.9 23.3 20.9 100 0.0 SE 9 13 5 7 1014.6 - 0.0
30/05:00am 20.9 23.3 20.9 100 0.0 SE 9 11 5 6 1014.4 - 0.0
30/04:30am 20.9 23.7 20.9 100 0.0 SE 7 11 4 6 1014.4 - 0.0
30/04:00am 20.9 23.7 20.9 100 0.0 SE 7 11 4 6 1014.4 - 0.0
30/03:30am 20.7 23.4 20.7 100 0.0 SE 7 9 4 5 1014.4 - 0.0
30/03:00am 19.7 23.3 19.7 100 0.0 CALM 0 0 0 0 1014.5 1014.4 0.0
30/02:30am 20.1 23.9 20.1 100 0.0 CALM 0 0 0 0 1014.6 - 0.0
30/02:00am 20.5 24.5 20.5 100 0.0 CALM 0 0 0 0 1014.9 - 0.0
30/01:30am 21.0 24.7 20.8 99 0.1 SE 2 6 1 3 1015.2 - 0.0
30/01:00am 21.7 24.8 21.5 99 0.1 SE 7 11 4 6 1015.4 - 0.0
30/12:30am 21.9 24.9 21.2 96 0.5 SE 7 11 4 6 1015.6 - 0.0
30/12:00am 22.3 25.3 21.3 94 0.7 SE 7 9 4 5 1015.6 1015.5 0.0
 
Date/Time
CST
Temp
°C
App
Temp
°C
Dew
Point
Rel
Hum
%
Delta-T
°C
Wind Press
QNH
hPa
Press
MSL
hPa
Rain
since 9 am
mm
Dir
 
Spd
km/h
Gust
km/h
Spd
kts
Gust
kts
29/11:30pm 22.5 25.4 21.1 92 0.9 SE 7 11 4 6 1015.8 - 0.0

Other Formats:

Comma delimited format used in spreadsheet applications
http://www.bom.gov.au/fwo/IDD60801/IDD60801.95146.axf

JavaScript Object Notation format (JSON) in row-major order
http://www.bom.gov.au/fwo/IDD60801/IDD60801.95146.json